Terminal Aerodrome Forecast
Issued by NWS

Home | Current Version | Previous Version | Text Only | Print | Product List | Glossary On
Versions: 1 2 3 4 5 6 7 8 9 10 11 12 13 14 15 16 17 18 19 20 21
000
FTUS43 KILX 031120 AAD
TAFDEC
TAF AMD
KDEC 031120Z 0311/0406 13004KT 3SM BR SKC
      TEMPO 0311/0313 1SM BR BKN010
     FM031500 15007KT P6SM SCT250
     FM040000 13005KT P6SM SCT250=

USA.gov is the U.S. government's official web portal to all federal, state and local government web resources and services.